createdAt,value
2022-10-22T00:04:04.241Z,1.9
2022-10-22T00:09:04.418Z,1.8
2022-10-22T00:14:04.363Z,1.6
2022-10-22T00:19:14.624Z,1.6
2022-10-22T00:24:14.686Z,1.6
2022-10-22T00:29:14.821Z,1.8
2022-10-22T00:35:04.294Z,1.6
2022-10-22T00:40:04.391Z,1.7
2022-10-22T00:45:14.584Z,1.7
2022-10-22T00:50:14.620Z,1.6
2022-10-22T00:55:14.667Z,1.4
2022-10-22T01:00:14.842Z,1.5
2022-10-22T01:06:04.293Z,1.3
2022-10-22T01:11:04.310Z,1.4
2022-10-22T01:16:14.617Z,1.7
2022-10-22T01:21:14.830Z,1.5
2022-10-22T01:27:04.258Z,1.8
2022-10-22T01:32:04.276Z,1.7
2022-10-22T01:37:04.804Z,1.3
2022-10-22T01:42:14.868Z,1.1
2022-10-22T01:48:04.336Z,1.1
2022-10-22T01:53:14.878Z,1
2022-10-22T01:59:04.316Z,1.3
2022-10-22T02:04:04.381Z,1.5
2022-10-22T02:09:14.918Z,1.6
2022-10-22T02:15:04.314Z,1.5
2022-10-22T02:20:04.332Z,1.3
2022-10-22T02:25:04.615Z,1.5
2022-10-22T02:35:14.813Z,1.5
2022-10-22T02:41:04.359Z,1.5
2022-10-22T02:46:14.807Z,1.7
2022-10-22T02:52:04.351Z,1.5
2022-10-22T02:58:04.291Z,1.3
2022-10-22T03:03:04.362Z,1.1
2022-10-22T03:08:25.080Z,1.1
2022-10-22T03:14:04.354Z,1.3
2022-10-22T03:19:04.391Z,1.1
2022-10-22T03:24:14.825Z,0.9
2022-10-22T03:29:14.868Z,1.2
2022-10-22T03:34:14.838Z,1.2
2022-10-22T03:40:04.391Z,1.3
2022-10-22T03:45:04.559Z,1.2
2022-10-22T03:50:14.823Z,1.2
2022-10-22T03:55:14.881Z,1.5
2022-10-22T04:01:04.528Z,1.2
2022-10-22T04:06:14.808Z,1.2
2022-10-22T04:12:04.363Z,1
2022-10-22T04:17:14.885Z,1.8
2022-10-22T04:23:04.356Z,1.4
2022-10-22T04:28:04.457Z,1.2
2022-10-22T04:33:14.851Z,1.3
2022-10-22T04:39:04.295Z,1.4
2022-10-22T04:44:04.275Z,1.4
2022-10-22T04:49:14.833Z,1.3
2022-10-22T04:54:15.154Z,1.1
2022-10-22T04:59:14.842Z,1
2022-10-22T05:05:04.342Z,0.9
2022-10-22T05:10:14.779Z,1
2022-10-22T05:15:14.841Z,0.9
2022-10-22T05:21:04.421Z,0.9
2022-10-22T05:26:04.398Z,0.9
2022-10-22T05:31:14.661Z,1.1
2022-10-22T05:37:04.311Z,1
2022-10-22T05:42:04.305Z,1.3
2022-10-22T05:47:14.634Z,1
2022-10-22T05:53:04.337Z,0.9
2022-10-22T05:58:04.315Z,1
2022-10-22T06:03:04.338Z,0.8
2022-10-22T06:08:18.333Z,0.9
2022-10-22T06:14:04.393Z,1
2022-10-22T06:19:14.638Z,0.8
2022-10-22T06:25:04.403Z,0.9
2022-10-22T06:30:14.587Z,0.8
2022-10-22T06:35:14.599Z,0.8
2022-10-22T06:40:14.760Z,0.9
2022-10-22T06:45:14.779Z,1.1
2022-10-22T06:51:04.316Z,1
2022-10-22T06:56:04.342Z,1.1
2022-10-22T07:01:04.425Z,1.2
2022-10-22T07:06:04.626Z,1.3
2022-10-22T07:11:14.891Z,1.2
2022-10-22T07:17:04.565Z,1.6
2022-10-22T07:22:14.858Z,1.3
2022-10-22T07:27:14.974Z,1.3
2022-10-22T07:33:04.384Z,1.3
2022-10-22T07:38:04.558Z,1.4
2022-10-22T07:43:04.630Z,1.4
2022-10-22T07:48:14.788Z,1.4
2022-10-22T07:53:14.973Z,1.3
2022-10-22T07:58:14.847Z,1.5
2022-10-22T08:03:14.888Z,1.6
2022-10-22T08:09:04.812Z,1.3
2022-10-22T08:14:04.607Z,1.4
2022-10-22T08:19:14.857Z,1.5
2022-10-22T08:25:04.565Z,1.6
2022-10-22T08:30:14.656Z,1.9
2022-10-22T08:35:16.968Z,2.1
2022-10-22T08:41:04.663Z,2.1
2022-10-22T08:46:04.697Z,2.5
2022-10-22T08:51:05.909Z,2.7
2022-10-22T08:56:14.619Z,2.8
2022-10-22T09:01:14.884Z,3.1
2022-10-22T09:07:14.819Z,3.2
2022-10-22T09:13:05.075Z,3.1
2022-10-22T09:18:14.897Z,3.4
2022-10-22T09:24:04.355Z,3.4
2022-10-22T09:29:04.551Z,2.9
2022-10-22T09:34:04.593Z,3.3
2022-10-22T09:45:04.570Z,3.5
2022-10-22T09:50:14.804Z,4
2022-10-22T09:55:14.849Z,3.8
2022-10-22T10:00:14.844Z,4
2022-10-22T10:05:14.864Z,4
2022-10-22T10:11:04.596Z,4.3
2022-10-22T10:16:04.568Z,4.5
2022-10-22T10:27:04.340Z,5.1
2022-10-22T10:32:04.351Z,4.9
2022-10-22T10:37:04.360Z,5
2022-10-22T10:42:04.563Z,4.6
2022-10-22T10:47:05.245Z,4.9
2022-10-22T10:52:18.818Z,5.4
2022-10-22T10:58:04.599Z,5.7
2022-10-22T11:03:14.696Z,5.4
2022-10-22T11:08:14.870Z,5.8
2022-10-22T11:14:04.337Z,5.8
2022-10-22T11:19:04.370Z,5.7
2022-10-22T11:24:04.558Z,5.8
2022-10-22T11:29:14.899Z,6
2022-10-22T11:35:04.750Z,5.9
2022-10-22T11:40:14.915Z,5.9
2022-10-22T11:46:04.370Z,6.1
2022-10-22T11:51:14.710Z,5.8
2022-10-22T11:56:14.669Z,6
2022-10-22T12:01:14.673Z,4.9
2022-10-22T12:06:14.696Z,5.6
2022-10-22T12:12:04.495Z,5.6
2022-10-22T12:17:14.670Z,5.8
2022-10-22T12:22:14.719Z,5.8
2022-10-22T12:28:04.602Z,5.3
2022-10-22T12:33:14.668Z,5.5
2022-10-22T12:38:14.706Z,6
2022-10-22T12:43:14.766Z,5.9
2022-10-22T12:48:14.769Z,5.8
2022-10-22T12:54:04.593Z,6.4
2022-10-22T12:59:04.642Z,6
2022-10-22T13:04:14.891Z,5.8
2022-10-22T13:09:15.058Z,6.2
2022-10-22T13:15:04.662Z,6
2022-10-22T13:20:14.905Z,5.7
2022-10-22T13:26:04.608Z,5.5
2022-10-22T13:31:04.633Z,5.5
2022-10-22T13:36:04.631Z,6.3
2022-10-22T13:41:04.611Z,5.8
2022-10-22T13:46:14.802Z,6.3
2022-10-22T13:51:14.913Z,6.2
2022-10-22T13:57:04.632Z,6.3
2022-10-22T14:02:14.936Z,6.6
2022-10-22T14:07:14.954Z,6.7
2022-10-22T14:13:04.467Z,6.3
2022-10-22T14:18:04.652Z,6.3
2022-10-22T14:23:04.677Z,6.6
2022-10-22T14:28:14.915Z,6.5
2022-10-22T14:34:04.427Z,6.6
2022-10-22T14:39:04.700Z,6.8
2022-10-22T14:44:14.951Z,6.8
2022-10-22T14:50:04.410Z,6.4
2022-10-22T14:55:04.467Z,6.9
2022-10-22T15:00:14.716Z,6.8
2022-10-22T15:05:14.927Z,6.7
2022-10-22T15:10:14.917Z,6.7
2022-10-22T15:15:16.499Z,6.4
2022-10-22T15:21:04.664Z,6.6
2022-10-22T15:26:14.915Z,6.2
2022-10-22T15:31:14.956Z,5.7
2022-10-22T15:37:04.632Z,5.5
2022-10-22T15:42:14.948Z,5.6
2022-10-22T15:47:14.947Z,5.4
2022-10-22T15:53:04.662Z,4.9
2022-10-22T15:58:04.704Z,4.8
2022-10-22T16:03:14.925Z,5.1
2022-10-22T16:08:14.977Z,4.4
2022-10-22T16:13:14.964Z,4.4
2022-10-22T16:19:04.645Z,4
2022-10-22T16:24:06.352Z,3.8
2022-10-22T16:29:04.653Z,3.6
2022-10-22T16:34:14.699Z,3.5
2022-10-22T16:39:14.782Z,3.5
2022-10-22T16:44:14.885Z,3
2022-10-22T16:49:14.951Z,3
2022-10-22T16:54:14.997Z,2.5
2022-10-22T17:00:04.660Z,2.2
2022-10-22T17:05:04.702Z,2
2022-10-22T17:10:15.010Z,2.2
2022-10-22T17:15:14.990Z,2.2
2022-10-22T17:21:04.664Z,2.3
2022-10-22T17:26:14.938Z,2.1
2022-10-22T17:31:14.940Z,2
2022-10-22T17:36:14.977Z,2.5
2022-10-22T17:42:04.833Z,2.3
2022-10-22T17:47:14.982Z,2.1
2022-10-22T17:52:14.982Z,2
2022-10-22T17:58:04.489Z,1.8
2022-10-22T18:03:14.841Z,1.9
2022-10-22T18:09:04.532Z,1.9
2022-10-22T18:14:14.744Z,1.6
2022-10-22T18:19:14.860Z,1.8
2022-10-22T18:25:04.484Z,1.8
2022-10-22T18:30:04.526Z,1.8
2022-10-22T18:35:14.844Z,1.8
2022-10-22T18:41:04.475Z,1.8
2022-10-22T18:46:04.502Z,1.8
2022-10-22T18:51:04.632Z,1.7
2022-10-22T18:56:14.758Z,1.8
2022-10-22T19:01:14.809Z,1.8
2022-10-22T19:06:14.831Z,1.8
2022-10-22T19:12:04.684Z,1.8
2022-10-22T19:17:14.775Z,1.7
2022-10-22T19:22:15.004Z,1.7
2022-10-22T19:28:04.470Z,1.8
2022-10-22T19:33:04.469Z,1.7
2022-10-22T19:38:04.548Z,1.7
2022-10-22T19:43:04.664Z,1.7
2022-10-22T19:48:04.665Z,1.9
2022-10-22T19:53:14.834Z,1.8
2022-10-22T19:58:16.115Z,1.7
2022-10-22T20:04:04.659Z,1.9
2022-10-22T20:09:14.861Z,1.8
2022-10-22T20:14:14.975Z,2.1
2022-10-22T20:19:14.971Z,1.9
2022-10-22T20:25:04.728Z,1.9
2022-10-22T20:36:04.649Z,1.9
2022-10-22T20:41:15.025Z,1.7
2022-10-22T20:47:05.069Z,1.8
2022-10-22T20:52:15.028Z,1.8
2022-10-22T20:58:04.707Z,1.8
2022-10-22T21:03:14.800Z,1.9
2022-10-22T21:08:14.881Z,2
2022-10-22T21:13:15.080Z,1.9
2022-10-22T21:19:04.505Z,2
2022-10-22T21:24:04.499Z,2
2022-10-22T21:29:04.706Z,1.9
2022-10-22T21:34:14.984Z,2.1
2022-10-22T21:39:14.986Z,1.9
2022-10-22T21:45:08.017Z,2
2022-10-22T21:50:04.701Z,2
2022-10-22T21:55:14.981Z,1.7
2022-10-22T22:00:15.025Z,2
2022-10-22T22:06:04.696Z,1.9
2022-10-22T22:11:04.690Z,1.8
2022-10-22T22:16:14.814Z,2
2022-10-22T22:21:14.976Z,1.8
2022-10-22T22:27:04.464Z,1.9
2022-10-22T22:32:04.545Z,2.1
2022-10-22T22:37:04.694Z,1.9
2022-10-22T22:42:14.974Z,1.8
2022-10-22T22:47:15.007Z,1.6
2022-10-22T22:52:15.039Z,1.7
2022-10-22T22:57:15.023Z,1.8
2022-10-22T23:03:04.714Z,1.8
2022-10-22T23:08:14.989Z,1.7
2022-10-22T23:13:14.995Z,1.6
2022-10-22T23:19:04.653Z,1.5
2022-10-22T23:24:04.480Z,1.7
2022-10-22T23:29:04.680Z,1.7
2022-10-22T23:34:04.787Z,1.8
2022-10-22T23:39:15.010Z,1.9
2022-10-22T23:45:04.712Z,1.7
2022-10-22T23:50:14.949Z,1.8
2022-10-22T23:56:04.568Z,1.6
